Terminal Aerodrome Forecast
Issued by NWS

Current Version | Previous Version | Text Only | Print | Product List | Glossary On
Versions: 1 2 3 4 5 6 7 8 9 10 11 12 13 14 15 16 17 18 19 20 21 22 23 24 25 26 27
000
FTUS41 KOKX 272128 AAD
TAFGON
TAF AMD
KGON 272128Z 2721/2818 18011KT P6SM BKN025
     FM280100 18010KT P6SM BKN015
     FM280300 19009KT 5SM BR OVC009
     FM280500 18006KT 2SM BR VCSH OVC007
     FM280900 19006KT 5SM -SHRA BR OVC004
     FM281600 18009KT 5SM -SHRA BR OVC007=

USA.gov is the U.S. government's official web portal to all federal, state and local government web resources and services.